sensor_id;sensor_type;location;lat;lon;timestamp;P1;durP1;ratioP1;P2;durP2;ratioP2
75400;SDS011;63974;47.538;18.972;2023-02-15T00:00:52;39.40;;;14.43;;
75400;SDS011;63974;47.538;18.972;2023-02-15T00:03:57;36.38;;;13.82;;
75400;SDS011;63974;47.538;18.972;2023-02-15T00:06:59;31.80;;;12.87;;
75400;SDS011;63974;47.538;18.972;2023-02-15T00:10:02;32.80;;;13.32;;
75400;SDS011;63974;47.538;18.972;2023-02-15T00:13:06;29.92;;;12.13;;
75400;SDS011;63974;47.538;18.972;2023-02-15T00:16:09;36.30;;;13.68;;
75400;SDS011;63974;47.538;18.972;2023-02-15T00:19:15;35.30;;;13.13;;
75400;SDS011;63974;47.538;18.972;2023-02-15T00:22:19;34.50;;;13.03;;
75400;SDS011;63974;47.538;18.972;2023-02-15T00:25:23;31.67;;;13.55;;
75400;SDS011;63974;47.538;18.972;2023-02-15T00:28:25;34.33;;;14.88;;
75400;SDS011;63974;47.538;18.972;2023-02-15T00:31:30;34.35;;;13.75;;
75400;SDS011;63974;47.538;18.972;2023-02-15T00:34:34;34.22;;;12.60;;
75400;SDS011;63974;47.538;18.972;2023-02-15T00:37:37;37.37;;;13.07;;
75400;SDS011;63974;47.538;18.972;2023-02-15T00:40:40;35.10;;;14.05;;
75400;SDS011;63974;47.538;18.972;2023-02-15T00:43:43;32.05;;;13.52;;
75400;SDS011;63974;47.538;18.972;2023-02-15T00:46:45;31.98;;;12.20;;
75400;SDS011;63974;47.538;18.972;2023-02-15T00:49:49;38.20;;;14.77;;
75400;SDS011;63974;47.538;18.972;2023-02-15T00:52:52;37.37;;;14.37;;
75400;SDS011;63974;47.538;18.972;2023-02-15T00:55:56;38.42;;;13.63;;
75400;SDS011;63974;47.538;18.972;2023-02-15T00:58:59;34.33;;;12.57;;
75400;SDS011;63974;47.538;18.972;2023-02-15T01:02:02;36.97;;;13.43;;
75400;SDS011;63974;47.538;18.972;2023-02-15T01:05:04;34.55;;;13.35;;
75400;SDS011;63974;47.538;18.972;2023-02-15T01:08:08;42.23;;;14.37;;
75400;SDS011;63974;47.538;18.972;2023-02-15T01:11:14;67.88;;;20.00;;
75400;SDS011;63974;47.538;18.972;2023-02-15T01:14:25;40.60;;;13.60;;
75400;SDS011;63974;47.538;18.972;2023-02-15T01:17:28;43.05;;;16.30;;
75400;SDS011;63974;47.538;18.972;2023-02-15T01:20:34;46.30;;;15.60;;
75400;SDS011;63974;47.538;18.972;2023-02-15T01:23:39;37.30;;;13.57;;
75400;SDS011;63974;47.538;18.972;2023-02-15T01:26:43;38.72;;;13.80;;
75400;SDS011;63974;47.538;18.972;2023-02-15T01:29:46;34.42;;;12.60;;
75400;SDS011;63974;47.538;18.972;2023-02-15T01:32:49;38.92;;;13.48;;
75400;SDS011;63974;47.538;18.972;2023-02-15T01:35:56;36.97;;;14.65;;
75400;SDS011;63974;47.538;18.972;2023-02-15T01:39:00;35.70;;;13.37;;
75400;SDS011;63974;47.538;18.972;2023-02-15T01:42:08;38.00;;;13.32;;
75400;SDS011;63974;47.538;18.972;2023-02-15T01:45:21;38.38;;;13.23;;
75400;SDS011;63974;47.538;18.972;2023-02-15T01:48:26;34.85;;;12.93;;
75400;SDS011;63974;47.538;18.972;2023-02-15T01:51:31;31.83;;;12.32;;
75400;SDS011;63974;47.538;18.972;2023-02-15T01:54:37;29.33;;;12.47;;
75400;SDS011;63974;47.538;18.972;2023-02-15T01:57:42;32.42;;;11.70;;
75400;SDS011;63974;47.538;18.972;2023-02-15T02:00:48;39.22;;;14.10;;
75400;SDS011;63974;47.538;18.972;2023-02-15T02:03:59;39.05;;;13.80;;
75400;SDS011;63974;47.538;18.972;2023-02-15T02:07:11;31.48;;;10.88;;
75400;SDS011;63974;47.538;18.972;2023-02-15T02:10:17;32.80;;;10.87;;
75400;SDS011;63974;47.538;18.972;2023-02-15T02:13:22;36.80;;;12.05;;
75400;SDS011;63974;47.538;18.972;2023-02-15T02:16:28;39.83;;;13.05;;
75400;SDS011;63974;47.538;18.972;2023-02-15T02:37:03;33.45;;;12.15;;
75400;SDS011;63974;47.538;18.972;2023-02-15T02:40:19;30.35;;;10.90;;
75400;SDS011;63974;47.538;18.972;2023-02-15T02:43:34;29.73;;;12.17;;
75400;SDS011;63974;47.538;18.972;2023-02-15T02:50:14;35.10;;;14.02;;
75400;SDS011;63974;47.538;18.972;2023-02-15T02:53:19;35.72;;;12.40;;
75400;SDS011;63974;47.538;18.972;2023-02-15T02:56:29;32.30;;;12.13;;
75400;SDS011;63974;47.538;18.972;2023-02-15T02:59:37;41.40;;;13.07;;
75400;SDS011;63974;47.538;18.972;2023-02-15T03:02:44;33.33;;;12.98;;
75400;SDS011;63974;47.538;18.972;2023-02-15T03:05:57;32.88;;;12.27;;
75400;SDS011;63974;47.538;18.972;2023-02-15T03:09:05;35.67;;;12.32;;
75400;SDS011;63974;47.538;18.972;2023-02-15T03:12:37;34.60;;;12.68;;
75400;SDS011;63974;47.538;18.972;2023-02-15T03:15:43;31.40;;;12.33;;
75400;SDS011;63974;47.538;18.972;2023-02-15T03:19:11;32.58;;;12.40;;
75400;SDS011;63974;47.538;18.972;2023-02-15T03:22:26;34.25;;;12.55;;
75400;SDS011;63974;47.538;18.972;2023-02-15T03:25:46;31.95;;;11.43;;
75400;SDS011;63974;47.538;18.972;2023-02-15T03:28:57;34.70;;;10.93;;
75400;SDS011;63974;47.538;18.972;2023-02-15T03:32:05;24.23;;;9.57;;
75400;SDS011;63974;47.538;18.972;2023-02-15T03:35:10;27.58;;;11.48;;
75400;SDS011;63974;47.538;18.972;2023-02-15T03:38:14;29.52;;;12.02;;
75400;SDS011;63974;47.538;18.972;2023-02-15T03:41:22;30.48;;;12.00;;
75400;SDS011;63974;47.538;18.972;2023-02-15T03:44:29;36.55;;;12.85;;
75400;SDS011;63974;47.538;18.972;2023-02-15T03:47:37;28.47;;;10.87;;
75400;SDS011;63974;47.538;18.972;2023-02-15T03:50:45;31.05;;;11.15;;
75400;SDS011;63974;47.538;18.972;2023-02-15T03:54:11;30.15;;;11.32;;
75400;SDS011;63974;47.538;18.972;2023-02-15T03:57:37;32.72;;;12.00;;
75400;SDS011;63974;47.538;18.972;2023-02-15T04:00:59;31.65;;;10.57;;
75400;SDS011;63974;47.538;18.972;2023-02-15T04:04:46;34.20;;;11.73;;
75400;SDS011;63974;47.538;18.972;2023-02-15T04:07:49;32.88;;;12.00;;
75400;SDS011;63974;47.538;18.972;2023-02-15T04:10:52;41.47;;;12.63;;
75400;SDS011;63974;47.538;18.972;2023-02-15T04:13:55;37.50;;;12.80;;
75400;SDS011;63974;47.538;18.972;2023-02-15T04:16:58;33.25;;;11.43;;
75400;SDS011;63974;47.538;18.972;2023-02-15T04:20:01;40.07;;;13.97;;
75400;SDS011;63974;47.538;18.972;2023-02-15T04:23:23;33.17;;;12.40;;
75400;SDS011;63974;47.538;18.972;2023-02-15T04:26:44;36.15;;;12.23;;
75400;SDS011;63974;47.538;18.972;2023-02-15T04:29:47;33.20;;;11.90;;
75400;SDS011;63974;47.538;18.972;2023-02-15T04:32:53;31.48;;;12.48;;
75400;SDS011;63974;47.538;18.972;2023-02-15T04:35:56;26.43;;;10.90;;
75400;SDS011;63974;47.538;18.972;2023-02-15T04:38:59;34.05;;;12.88;;
75400;SDS011;63974;47.538;18.972;2023-02-15T04:42:01;30.52;;;12.82;;
75400;SDS011;63974;47.538;18.972;2023-02-15T04:45:04;33.00;;;12.13;;
75400;SDS011;63974;47.538;18.972;2023-02-15T04:48:07;30.77;;;11.13;;
75400;SDS011;63974;47.538;18.972;2023-02-15T04:51:10;31.77;;;11.97;;
75400;SDS011;63974;47.538;18.972;2023-02-15T04:54:13;28.83;;;11.18;;
75400;SDS011;63974;47.538;18.972;2023-02-15T04:57:16;31.60;;;12.10;;
75400;SDS011;63974;47.538;18.972;2023-02-15T05:00:19;31.63;;;10.63;;
75400;SDS011;63974;47.538;18.972;2023-02-15T05:03:22;25.88;;;11.40;;
75400;SDS011;63974;47.538;18.972;2023-02-15T05:06:25;29.47;;;11.87;;
75400;SDS011;63974;47.538;18.972;2023-02-15T05:09:28;31.48;;;11.30;;
75400;SDS011;63974;47.538;18.972;2023-02-15T05:12:31;31.63;;;11.23;;
75400;SDS011;63974;47.538;18.972;2023-02-15T05:15:34;31.50;;;11.85;;
75400;SDS011;63974;47.538;18.972;2023-02-15T05:18:37;29.75;;;10.80;;
75400;SDS011;63974;47.538;18.972;2023-02-15T05:21:40;33.13;;;12.53;;
75400;SDS011;63974;47.538;18.972;2023-02-15T05:24:42;30.80;;;11.60;;
75400;SDS011;63974;47.538;18.972;2023-02-15T05:28:04;31.23;;;11.88;;
75400;SDS011;63974;47.538;18.972;2023-02-15T05:31:23;29.10;;;11.80;;
75400;SDS011;63974;47.538;18.972;2023-02-15T05:34:26;33.28;;;12.80;;
75400;SDS011;63974;47.538;18.972;2023-02-15T05:37:29;38.87;;;13.00;;
75400;SDS011;63974;47.538;18.972;2023-02-15T05:40:32;27.92;;;11.88;;
75400;SDS011;63974;47.538;18.972;2023-02-15T05:43:35;31.35;;;10.70;;
75400;SDS011;63974;47.538;18.972;2023-02-15T05:46:38;32.10;;;11.93;;
75400;SDS011;63974;47.538;18.972;2023-02-15T05:49:40;34.50;;;11.98;;
75400;SDS011;63974;47.538;18.972;2023-02-15T05:52:43;31.30;;;12.23;;
75400;SDS011;63974;47.538;18.972;2023-02-15T05:55:46;28.63;;;11.43;;
75400;SDS011;63974;47.538;18.972;2023-02-15T05:58:49;32.50;;;10.95;;
75400;SDS011;63974;47.538;18.972;2023-02-15T06:01:52;29.58;;;11.60;;
75400;SDS011;63974;47.538;18.972;2023-02-15T06:04:54;36.70;;;15.00;;
75400;SDS011;63974;47.538;18.972;2023-02-15T06:07:57;33.83;;;12.93;;
75400;SDS011;63974;47.538;18.972;2023-02-15T06:11:00;38.40;;;15.27;;
75400;SDS011;63974;47.538;18.972;2023-02-15T06:14:03;40.13;;;13.45;;
75400;SDS011;63974;47.538;18.972;2023-02-15T06:17:06;43.03;;;14.50;;
75400;SDS011;63974;47.538;18.972;2023-02-15T06:20:09;48.25;;;17.08;;
75400;SDS011;63974;47.538;18.972;2023-02-15T06:23:12;47.13;;;17.10;;
75400;SDS011;63974;47.538;18.972;2023-02-15T06:26:15;42.88;;;17.40;;
75400;SDS011;63974;47.538;18.972;2023-02-15T06:29:18;42.85;;;19.77;;
75400;SDS011;63974;47.538;18.972;2023-02-15T06:32:20;45.88;;;19.77;;
75400;SDS011;63974;47.538;18.972;2023-02-15T06:35:23;46.35;;;20.40;;
75400;SDS011;63974;47.538;18.972;2023-02-15T06:38:26;46.33;;;19.57;;
75400;SDS011;63974;47.538;18.972;2023-02-15T06:41:29;45.90;;;18.13;;
75400;SDS011;63974;47.538;18.972;2023-02-15T06:44:32;46.60;;;17.95;;
75400;SDS011;63974;47.538;18.972;2023-02-15T06:47:35;53.10;;;19.95;;
75400;SDS011;63974;47.538;18.972;2023-02-15T06:50:39;57.13;;;20.17;;
75400;SDS011;63974;47.538;18.972;2023-02-15T06:53:41;53.93;;;20.70;;
75400;SDS011;63974;47.538;18.972;2023-02-15T06:56:45;51.90;;;18.02;;
75400;SDS011;63974;47.538;18.972;2023-02-15T06:59:48;50.00;;;19.60;;
75400;SDS011;63974;47.538;18.972;2023-02-15T07:02:59;51.50;;;19.08;;
75400;SDS011;63974;47.538;18.972;2023-02-15T07:06:04;54.30;;;20.80;;
75400;SDS011;63974;47.538;18.972;2023-02-15T07:09:11;64.33;;;20.57;;
75400;SDS011;63974;47.538;18.972;2023-02-15T07:12:15;57.08;;;20.90;;
75400;SDS011;63974;47.538;18.972;2023-02-15T07:15:36;65.63;;;23.50;;
75400;SDS011;63974;47.538;18.972;2023-02-15T07:18:39;62.10;;;22.38;;
75400;SDS011;63974;47.538;18.972;2023-02-15T07:21:42;61.63;;;24.80;;
75400;SDS011;63974;47.538;18.972;2023-02-15T07:24:47;66.53;;;26.90;;
75400;SDS011;63974;47.538;18.972;2023-02-15T07:27:57;59.85;;;24.88;;
75400;SDS011;63974;47.538;18.972;2023-02-15T07:31:02;48.53;;;20.25;;
75400;SDS011;63974;47.538;18.972;2023-02-15T07:34:06;54.78;;;23.80;;
75400;SDS011;63974;47.538;18.972;2023-02-15T07:37:09;51.40;;;22.17;;
75400;SDS011;63974;47.538;18.972;2023-02-15T07:40:12;69.70;;;29.53;;
75400;SDS011;63974;47.538;18.972;2023-02-15T07:43:15;63.13;;;28.02;;
75400;SDS011;63974;47.538;18.972;2023-02-15T07:46:18;59.65;;;24.60;;
75400;SDS011;63974;47.538;18.972;2023-02-15T07:49:23;44.63;;;18.13;;
75400;SDS011;63974;47.538;18.972;2023-02-15T07:52:25;50.63;;;20.75;;
75400;SDS011;63974;47.538;18.972;2023-02-15T07:55:30;39.83;;;15.30;;
75400;SDS011;63974;47.538;18.972;2023-02-15T07:58:33;38.40;;;15.68;;
75400;SDS011;63974;47.538;18.972;2023-02-15T08:01:54;37.85;;;14.75;;
75400;SDS011;63974;47.538;18.972;2023-02-15T08:04:58;43.30;;;14.77;;
75400;SDS011;63974;47.538;18.972;2023-02-15T08:08:01;40.45;;;15.40;;
75400;SDS011;63974;47.538;18.972;2023-02-15T08:14:26;31.40;;;12.48;;
75400;SDS011;63974;47.538;18.972;2023-02-15T08:17:29;32.03;;;12.80;;
75400;SDS011;63974;47.538;18.972;2023-02-15T08:20:32;36.95;;;13.65;;
75400;SDS011;63974;47.538;18.972;2023-02-15T08:23:35;36.10;;;14.52;;
75400;SDS011;63974;47.538;18.972;2023-02-15T08:26:38;32.07;;;13.70;;
75400;SDS011;63974;47.538;18.972;2023-02-15T08:29:44;36.58;;;14.85;;
75400;SDS011;63974;47.538;18.972;2023-02-15T08:32:46;41.63;;;15.93;;
75400;SDS011;63974;47.538;18.972;2023-02-15T08:35:49;38.00;;;14.70;;
75400;SDS011;63974;47.538;18.972;2023-02-15T08:38:53;35.58;;;14.05;;
75400;SDS011;63974;47.538;18.972;2023-02-15T08:41:57;40.37;;;14.83;;
75400;SDS011;63974;47.538;18.972;2023-02-15T08:45:00;31.80;;;13.70;;
75400;SDS011;63974;47.538;18.972;2023-02-15T08:48:03;29.60;;;12.38;;
75400;SDS011;63974;47.538;18.972;2023-02-15T08:51:07;29.02;;;11.95;;
75400;SDS011;63974;47.538;18.972;2023-02-15T08:54:16;27.98;;;12.60;;
75400;SDS011;63974;47.538;18.972;2023-02-15T08:57:34;28.47;;;10.73;;
75400;SDS011;63974;47.538;18.972;2023-02-15T09:00:37;30.75;;;11.18;;
75400;SDS011;63974;47.538;18.972;2023-02-15T09:03:40;34.70;;;11.63;;
75400;SDS011;63974;47.538;18.972;2023-02-15T09:06:44;34.22;;;13.40;;
75400;SDS011;63974;47.538;18.972;2023-02-15T09:09:50;33.10;;;12.43;;
75400;SDS011;63974;47.538;18.972;2023-02-15T09:12:53;26.27;;;11.20;;
75400;SDS011;63974;47.538;18.972;2023-02-15T09:16:09;32.72;;;11.23;;
75400;SDS011;63974;47.538;18.972;2023-02-15T09:19:12;29.70;;;12.07;;
75400;SDS011;63974;47.538;18.972;2023-02-15T09:22:15;29.65;;;11.50;;
75400;SDS011;63974;47.538;18.972;2023-02-15T09:25:18;25.80;;;10.18;;
75400;SDS011;63974;47.538;18.972;2023-02-15T09:28:21;26.07;;;10.03;;
75400;SDS011;63974;47.538;18.972;2023-02-15T09:31:25;26.65;;;11.13;;
75400;SDS011;63974;47.538;18.972;2023-02-15T09:34:36;24.58;;;10.23;;
75400;SDS011;63974;47.538;18.972;2023-02-15T09:37:39;29.40;;;11.85;;
75400;SDS011;63974;47.538;18.972;2023-02-15T09:40:44;28.60;;;10.60;;
75400;SDS011;63974;47.538;18.972;2023-02-15T09:54:32;26.00;;;10.43;;
75400;SDS011;63974;47.538;18.972;2023-02-15T10:01:07;28.60;;;11.67;;
75400;SDS011;63974;47.538;18.972;2023-02-15T10:14:47;27.48;;;10.57;;
75400;SDS011;63974;47.538;18.972;2023-02-15T10:18:20;21.63;;;10.37;;
75400;SDS011;63974;47.538;18.972;2023-02-15T10:21:49;25.02;;;9.68;;
75400;SDS011;63974;47.538;18.972;2023-02-15T10:35:20;24.93;;;10.37;;
75400;SDS011;63974;47.538;18.972;2023-02-15T10:38:40;25.38;;;9.88;;
75400;SDS011;63974;47.538;18.972;2023-02-15T10:45:18;25.33;;;9.90;;
75400;SDS011;63974;47.538;18.972;2023-02-15T10:49:12;22.33;;;9.75;;
75400;SDS011;63974;47.538;18.972;2023-02-15T10:55:50;23.90;;;10.38;;
75400;SDS011;63974;47.538;18.972;2023-02-15T11:09:00;26.63;;;10.40;;
75400;SDS011;63974;47.538;18.972;2023-02-15T11:12:09;24.88;;;10.52;;
75400;SDS011;63974;47.538;18.972;2023-02-15T11:15:24;23.25;;;9.95;;
75400;SDS011;63974;47.538;18.972;2023-02-15T11:18:35;23.70;;;10.13;;
75400;SDS011;63974;47.538;18.972;2023-02-15T11:21:43;22.33;;;10.38;;
75400;SDS011;63974;47.538;18.972;2023-02-15T11:24:52;22.77;;;9.77;;
75400;SDS011;63974;47.538;18.972;2023-02-15T11:27:57;25.42;;;10.07;;
75400;SDS011;63974;47.538;18.972;2023-02-15T11:31:02;22.17;;;10.95;;
75400;SDS011;63974;47.538;18.972;2023-02-15T11:37:40;24.00;;;10.38;;
75400;SDS011;63974;47.538;18.972;2023-02-15T11:41:10;25.37;;;10.57;;
75400;SDS011;63974;47.538;18.972;2023-02-15T11:44:17;21.98;;;10.32;;
75400;SDS011;63974;47.538;18.972;2023-02-15T11:47:25;21.92;;;10.20;;
75400;SDS011;63974;47.538;18.972;2023-02-15T11:50:29;23.08;;;10.35;;
75400;SDS011;63974;47.538;18.972;2023-02-15T11:53:36;27.02;;;11.32;;
75400;SDS011;63974;47.538;18.972;2023-02-15T11:56:40;24.87;;;10.40;;
75400;SDS011;63974;47.538;18.972;2023-02-15T11:59:44;26.20;;;10.77;;
75400;SDS011;63974;47.538;18.972;2023-02-15T12:03:16;26.30;;;11.57;;
75400;SDS011;63974;47.538;18.972;2023-02-15T12:06:29;24.58;;;11.02;;
75400;SDS011;63974;47.538;18.972;2023-02-15T12:09:46;25.42;;;11.18;;
75400;SDS011;63974;47.538;18.972;2023-02-15T12:13:11;28.40;;;11.40;;
75400;SDS011;63974;47.538;18.972;2023-02-15T12:16:18;27.33;;;11.43;;
75400;SDS011;63974;47.538;18.972;2023-02-15T12:19:37;26.63;;;11.07;;
75400;SDS011;63974;47.538;18.972;2023-02-15T12:22:49;25.55;;;11.20;;
75400;SDS011;63974;47.538;18.972;2023-02-15T12:25:54;27.08;;;11.18;;
75400;SDS011;63974;47.538;18.972;2023-02-15T12:28:59;30.47;;;12.73;;
75400;SDS011;63974;47.538;18.972;2023-02-15T12:32:27;27.95;;;12.05;;
75400;SDS011;63974;47.538;18.972;2023-02-15T12:35:34;26.27;;;11.25;;
75400;SDS011;63974;47.538;18.972;2023-02-15T12:38:38;28.95;;;12.02;;
75400;SDS011;63974;47.538;18.972;2023-02-15T12:41:46;27.08;;;11.63;;
75400;SDS011;63974;47.538;18.972;2023-02-15T12:45:02;27.27;;;10.97;;
75400;SDS011;63974;47.538;18.972;2023-02-15T12:48:21;27.30;;;12.50;;
75400;SDS011;63974;47.538;18.972;2023-02-15T12:51:24;31.00;;;13.45;;
75400;SDS011;63974;47.538;18.972;2023-02-15T12:54:28;35.20;;;14.13;;
75400;SDS011;63974;47.538;18.972;2023-02-15T12:57:32;34.83;;;14.90;;
75400;SDS011;63974;47.538;18.972;2023-02-15T13:00:36;34.00;;;13.80;;
75400;SDS011;63974;47.538;18.972;2023-02-15T13:07:05;28.10;;;11.90;;
75400;SDS011;63974;47.538;18.972;2023-02-15T13:10:23;27.20;;;11.57;;
75400;SDS011;63974;47.538;18.972;2023-02-15T13:13:31;28.90;;;12.50;;
75400;SDS011;63974;47.538;18.972;2023-02-15T13:16:37;29.00;;;12.80;;
75400;SDS011;63974;47.538;18.972;2023-02-15T13:19:43;26.90;;;12.07;;
75400;SDS011;63974;47.538;18.972;2023-02-15T13:22:50;29.02;;;11.95;;
75400;SDS011;63974;47.538;18.972;2023-02-15T13:25:57;32.05;;;12.43;;
75400;SDS011;63974;47.538;18.972;2023-02-15T13:29:06;25.90;;;11.52;;
75400;SDS011;63974;47.538;18.972;2023-02-15T13:32:36;27.83;;;11.80;;
75400;SDS011;63974;47.538;18.972;2023-02-15T13:35:44;24.90;;;10.63;;
75400;SDS011;63974;47.538;18.972;2023-02-15T13:39:11;26.63;;;10.77;;
75400;SDS011;63974;47.538;18.972;2023-02-15T13:42:32;26.77;;;11.00;;
75400;SDS011;63974;47.538;18.972;2023-02-15T13:52:33;25.67;;;11.45;;
75400;SDS011;63974;47.538;18.972;2023-02-15T14:15:18;26.38;;;11.57;;
75400;SDS011;63974;47.538;18.972;2023-02-15T14:32:08;26.42;;;11.20;;
75400;SDS011;63974;47.538;18.972;2023-02-15T14:35:19;27.88;;;11.23;;
75400;SDS011;63974;47.538;18.972;2023-02-15T14:42:45;26.00;;;11.57;;
75400;SDS011;63974;47.538;18.972;2023-02-15T14:46:01;92.68;;;30.95;;
75400;SDS011;63974;47.538;18.972;2023-02-15T14:49:15;76.88;;;25.08;;
75400;SDS011;63974;47.538;18.972;2023-02-15T14:52:21;39.47;;;17.35;;
75400;SDS011;63974;47.538;18.972;2023-02-15T14:55:36;23.80;;;10.57;;
75400;SDS011;63974;47.538;18.972;2023-02-15T14:58:54;61.65;;;25.20;;
75400;SDS011;63974;47.538;18.972;2023-02-15T15:02:03;33.22;;;14.35;;
75400;SDS011;63974;47.538;18.972;2023-02-15T15:08:38;28.58;;;12.32;;
75400;SDS011;63974;47.538;18.972;2023-02-15T15:11:44;27.37;;;12.20;;
75400;SDS011;63974;47.538;18.972;2023-02-15T15:14:49;33.10;;;15.68;;
75400;SDS011;63974;47.538;18.972;2023-02-15T15:17:55;35.50;;;16.15;;
75400;SDS011;63974;47.538;18.972;2023-02-15T15:21:06;34.70;;;15.77;;
75400;SDS011;63974;47.538;18.972;2023-02-15T15:24:09;44.13;;;19.15;;
75400;SDS011;63974;47.538;18.972;2023-02-15T15:27:42;34.10;;;14.57;;
75400;SDS011;63974;47.538;18.972;2023-02-15T15:30:54;38.55;;;16.88;;
75400;SDS011;63974;47.538;18.972;2023-02-15T15:37:42;36.95;;;15.68;;
75400;SDS011;63974;47.538;18.972;2023-02-15T15:41:08;32.92;;;14.85;;
75400;SDS011;63974;47.538;18.972;2023-02-15T15:51:38;57.55;;;23.95;;
75400;SDS011;63974;47.538;18.972;2023-02-15T15:54:43;52.90;;;23.63;;
75400;SDS011;63974;47.538;18.972;2023-02-15T15:57:52;46.45;;;23.38;;
75400;SDS011;63974;47.538;18.972;2023-02-15T16:01:07;36.83;;;16.67;;
75400;SDS011;63974;47.538;18.972;2023-02-15T16:04:21;38.00;;;17.75;;
75400;SDS011;63974;47.538;18.972;2023-02-15T16:07:29;35.78;;;17.00;;
75400;SDS011;63974;47.538;18.972;2023-02-15T16:10:32;29.58;;;15.60;;
75400;SDS011;63974;47.538;18.972;2023-02-15T16:13:36;34.67;;;15.43;;
75400;SDS011;63974;47.538;18.972;2023-02-15T16:16:48;29.33;;;13.93;;
75400;SDS011;63974;47.538;18.972;2023-02-15T16:20:37;30.63;;;14.75;;
75400;SDS011;63974;47.538;18.972;2023-02-15T16:29:45;29.20;;;13.35;;
75400;SDS011;63974;47.538;18.972;2023-02-15T16:32:48;28.50;;;12.07;;
75400;SDS011;63974;47.538;18.972;2023-02-15T16:39:07;28.58;;;13.02;;
75400;SDS011;63974;47.538;18.972;2023-02-15T16:42:12;28.52;;;13.13;;
75400;SDS011;63974;47.538;18.972;2023-02-15T16:45:18;25.90;;;12.38;;
75400;SDS011;63974;47.538;18.972;2023-02-15T16:48:23;33.50;;;14.13;;
75400;SDS011;63974;47.538;18.972;2023-02-15T16:51:30;31.70;;;14.15;;
75400;SDS011;63974;47.538;18.972;2023-02-15T16:54:35;38.13;;;16.83;;
75400;SDS011;63974;47.538;18.972;2023-02-15T16:57:38;40.80;;;17.77;;
75400;SDS011;63974;47.538;18.972;2023-02-15T17:00:45;42.50;;;19.08;;
75400;SDS011;63974;47.538;18.972;2023-02-15T17:03:50;42.07;;;20.50;;
75400;SDS011;63974;47.538;18.972;2023-02-15T17:07:17;51.28;;;20.00;;
75400;SDS011;63974;47.538;18.972;2023-02-15T17:10:27;42.08;;;18.70;;
75400;SDS011;63974;47.538;18.972;2023-02-15T17:13:31;46.85;;;20.90;;
75400;SDS011;63974;47.538;18.972;2023-02-15T17:19:49;39.63;;;19.13;;
75400;SDS011;63974;47.538;18.972;2023-02-15T17:22:55;46.75;;;20.00;;
75400;SDS011;63974;47.538;18.972;2023-02-15T17:26:11;51.97;;;20.67;;
75400;SDS011;63974;47.538;18.972;2023-02-15T17:29:27;60.25;;;24.45;;
75400;SDS011;63974;47.538;18.972;2023-02-15T17:32:37;63.78;;;26.60;;
75400;SDS011;63974;47.538;18.972;2023-02-15T17:35:40;67.07;;;26.73;;
75400;SDS011;63974;47.538;18.972;2023-02-15T17:41:59;90.63;;;35.20;;
75400;SDS011;63974;47.538;18.972;2023-02-15T17:45:02;92.88;;;36.00;;
75400;SDS011;63974;47.538;18.972;2023-02-15T17:48:06;88.55;;;35.53;;
75400;SDS011;63974;47.538;18.972;2023-02-15T17:51:23;83.70;;;35.20;;
75400;SDS011;63974;47.538;18.972;2023-02-15T17:54:25;94.00;;;35.40;;
75400;SDS011;63974;47.538;18.972;2023-02-15T17:57:47;86.85;;;32.60;;
75400;SDS011;63974;47.538;18.972;2023-02-15T18:00:51;82.60;;;31.52;;
75400;SDS011;63974;47.538;18.972;2023-02-15T18:04:16;81.18;;;32.55;;
75400;SDS011;63974;47.538;18.972;2023-02-15T18:07:38;91.27;;;33.27;;
75400;SDS011;63974;47.538;18.972;2023-02-15T18:11:00;85.88;;;33.28;;
75400;SDS011;63974;47.538;18.972;2023-02-15T18:14:22;85.90;;;33.92;;
75400;SDS011;63974;47.538;18.972;2023-02-15T18:17:31;88.18;;;31.65;;
75400;SDS011;63974;47.538;18.972;2023-02-15T18:20:36;85.57;;;32.53;;
75400;SDS011;63974;47.538;18.972;2023-02-15T18:23:39;82.17;;;29.63;;
75400;SDS011;63974;47.538;18.972;2023-02-15T18:26:44;70.65;;;26.48;;
75400;SDS011;63974;47.538;18.972;2023-02-15T18:29:47;67.53;;;24.38;;
75400;SDS011;63974;47.538;18.972;2023-02-15T18:32:51;67.38;;;26.33;;
75400;SDS011;63974;47.538;18.972;2023-02-15T18:35:58;71.93;;;26.70;;
75400;SDS011;63974;47.538;18.972;2023-02-15T18:39:05;65.90;;;25.17;;
75400;SDS011;63974;47.538;18.972;2023-02-15T18:45:28;70.07;;;25.90;;
75400;SDS011;63974;47.538;18.972;2023-02-15T18:48:36;75.03;;;27.30;;
75400;SDS011;63974;47.538;18.972;2023-02-15T18:51:40;80.50;;;28.40;;
75400;SDS011;63974;47.538;18.972;2023-02-15T18:54:44;83.93;;;27.90;;
75400;SDS011;63974;47.538;18.972;2023-02-15T18:57:49;79.88;;;28.48;;
75400;SDS011;63974;47.538;18.972;2023-02-15T19:00:54;70.18;;;28.50;;
75400;SDS011;63974;47.538;18.972;2023-02-15T19:03:56;68.28;;;26.30;;
75400;SDS011;63974;47.538;18.972;2023-02-15T19:06:59;63.78;;;25.98;;
75400;SDS011;63974;47.538;18.972;2023-02-15T19:10:03;66.57;;;22.53;;
75400;SDS011;63974;47.538;18.972;2023-02-15T19:13:08;65.75;;;23.55;;
75400;SDS011;63974;47.538;18.972;2023-02-15T19:16:34;61.13;;;24.13;;
75400;SDS011;63974;47.538;18.972;2023-02-15T19:19:37;63.42;;;22.25;;
75400;SDS011;63974;47.538;18.972;2023-02-15T19:22:40;57.70;;;20.50;;
75400;SDS011;63974;47.538;18.972;2023-02-15T19:25:43;67.07;;;22.43;;
75400;SDS011;63974;47.538;18.972;2023-02-15T19:28:48;62.38;;;23.65;;
75400;SDS011;63974;47.538;18.972;2023-02-15T19:31:52;70.88;;;25.20;;
75400;SDS011;63974;47.538;18.972;2023-02-15T19:34:55;77.03;;;25.38;;
75400;SDS011;63974;47.538;18.972;2023-02-15T19:37:59;72.03;;;26.63;;
75400;SDS011;63974;47.538;18.972;2023-02-15T19:41:06;65.07;;;23.80;;
75400;SDS011;63974;47.538;18.972;2023-02-15T19:44:10;65.95;;;24.73;;
75400;SDS011;63974;47.538;18.972;2023-02-15T19:47:14;65.40;;;25.08;;
75400;SDS011;63974;47.538;18.972;2023-02-15T19:50:19;67.60;;;26.10;;
75400;SDS011;63974;47.538;18.972;2023-02-15T19:53:31;68.57;;;25.35;;
75400;SDS011;63974;47.538;18.972;2023-02-15T19:56:34;61.50;;;24.43;;
75400;SDS011;63974;47.538;18.972;2023-02-15T19:59:38;55.35;;;22.02;;
75400;SDS011;63974;47.538;18.972;2023-02-15T20:02:42;60.28;;;22.75;;
75400;SDS011;63974;47.538;18.972;2023-02-15T20:05:46;59.65;;;22.30;;
75400;SDS011;63974;47.538;18.972;2023-02-15T20:08:50;62.78;;;24.08;;
75400;SDS011;63974;47.538;18.972;2023-02-15T20:11:53;58.10;;;20.70;;
75400;SDS011;63974;47.538;18.972;2023-02-15T20:14:57;49.85;;;20.17;;
75400;SDS011;63974;47.538;18.972;2023-02-15T20:18:01;49.90;;;19.13;;
75400;SDS011;63974;47.538;18.972;2023-02-15T20:21:05;52.85;;;19.42;;
75400;SDS011;63974;47.538;18.972;2023-02-15T20:24:16;59.60;;;21.33;;
75400;SDS011;63974;47.538;18.972;2023-02-15T20:27:21;54.27;;;20.03;;
75400;SDS011;63974;47.538;18.972;2023-02-15T20:30:26;59.20;;;21.45;;
75400;SDS011;63974;47.538;18.972;2023-02-15T20:33:31;64.80;;;26.63;;
75400;SDS011;63974;47.538;18.972;2023-02-15T20:36:36;70.22;;;26.17;;
75400;SDS011;63974;47.538;18.972;2023-02-15T20:39:40;62.17;;;24.67;;
75400;SDS011;63974;47.538;18.972;2023-02-15T20:42:44;60.83;;;24.00;;